createdAt,value
2023-03-10T00:01:30.893Z,34.80
2023-03-10T00:04:34.287Z,37.20
2023-03-10T00:07:37.592Z,34.40
2023-03-10T00:10:42.288Z,38.40
2023-03-10T00:13:45.624Z,36.00
2023-03-10T00:16:48.902Z,35.60
2023-03-10T00:19:52.182Z,47.75
2023-03-10T00:22:55.464Z,41.40
2023-03-10T00:26:01.886Z,38.40
2023-03-10T00:29:06.080Z,38.60
2023-03-10T00:32:09.495Z,34.00
2023-03-10T00:35:12.747Z,40.40
2023-03-10T00:38:16.136Z,42.40
2023-03-10T00:41:23.456Z,35.60
2023-03-10T00:44:29.604Z,37.50
2023-03-10T00:47:33.173Z,36.00
2023-03-10T00:50:36.444Z,38.00
2023-03-10T00:53:41.387Z,38.00
2023-03-10T00:56:46.023Z,34.80
2023-03-10T00:59:52.537Z,27.20
2023-03-10T01:02:55.955Z,20.50
2023-03-10T01:05:59.390Z,22.80
2023-03-10T01:09:02.942Z,17.60
2023-03-10T01:12:08.619Z,15.00
2023-03-10T01:15:14.154Z,12.00
2023-03-10T01:18:19.362Z,13.67
2023-03-10T01:21:25.666Z,10.00
2023-03-10T01:24:28.980Z,11.00
2023-03-10T01:27:33.698Z,10.00
2023-03-10T01:30:36.937Z,8.75
2023-03-10T01:33:41.406Z,11.00
2023-03-10T01:36:44.661Z,9.00
2023-03-10T01:39:49.719Z,8.40
2023-03-10T01:42:54.561Z,6.20
2023-03-10T01:46:39.789Z,9.40
2023-03-10T01:49:47.963Z,7.00
2023-03-10T01:52:58.437Z,6.00
2023-03-10T01:56:05.651Z,7.40
2023-03-10T01:59:11.762Z,10.00
2023-03-10T02:02:15.216Z,9.00
2023-03-10T02:05:19.061Z,5.00
2023-03-10T02:08:25.427Z,6.25
2023-03-10T02:11:29.125Z,5.50
2023-03-10T02:14:35.807Z,5.00
2023-03-10T02:17:41.259Z,5.00
2023-03-10T02:20:55.497Z,9.00
2023-03-10T02:24:06.543Z,4.00
2023-03-10T02:27:18.144Z,4.40
2023-03-10T02:30:25.782Z,2.00
2023-03-10T02:33:32.086Z,3.40
2023-03-10T02:36:35.517Z,4.00
2023-03-10T02:39:40.006Z,3.00
2023-03-10T02:42:44.828Z,3.50
2023-03-10T02:45:50.990Z,3.00
2023-03-10T02:48:54.826Z,3.00
2023-03-10T02:52:06.153Z,4.00
2023-03-10T02:55:16.444Z,3.00
2023-03-10T02:58:23.237Z,2.75
2023-03-10T03:01:27.361Z,5.00
2023-03-10T03:04:32.131Z,2.00
2023-03-10T03:07:36.329Z,3.00
2023-03-10T03:10:41.151Z,6.00
2023-03-10T03:13:46.912Z,4.75
2023-03-10T03:16:50.287Z,5.00
2023-03-10T03:19:54.827Z,4.40
2023-03-10T03:22:59.784Z,3.60
2023-03-10T03:26:03.265Z,4.00
2023-03-10T03:29:10.653Z,2.20
2023-03-10T03:32:14.549Z,4.00
2023-03-10T03:35:22.626Z,4.00
2023-03-10T03:38:26.120Z,5.00
2023-03-10T03:41:29.566Z,5.00
2023-03-10T03:44:34.538Z,3.00
2023-03-10T03:47:38.148Z,4.00
2023-03-10T03:50:41.667Z,3.25
2023-03-10T03:53:54.855Z,3.00
2023-03-10T03:56:58.413Z,4.00
2023-03-10T04:00:07.548Z,2.00
2023-03-10T04:03:16.021Z,3.00
2023-03-10T04:06:19.467Z,3.00
2023-03-10T04:09:23.858Z,2.00
2023-03-10T04:12:29.611Z,2.00
2023-03-10T04:15:36.496Z,3.00
2023-03-10T04:18:40.276Z,1.60
2023-03-10T04:21:46.146Z,3.00
2023-03-10T04:24:50.268Z,4.00
2023-03-10T04:27:53.611Z,3.00
2023-03-10T04:30:58.459Z,2.00
2023-03-10T04:34:06.441Z,3.00
2023-03-10T04:37:10.436Z,3.40
2023-03-10T04:40:15.955Z,2.00
2023-03-10T04:43:19.451Z,4.00
2023-03-10T04:46:24.620Z,3.00
2023-03-10T04:49:28.547Z,2.40
2023-03-10T04:52:32.381Z,3.00
2023-03-10T04:55:36.150Z,2.50
2023-03-10T04:58:41.640Z,4.00
2023-03-10T05:01:46.964Z,3.00
2023-03-10T05:04:50.835Z,1.20
2023-03-10T05:07:54.674Z,2.00
2023-03-10T05:10:59.218Z,2.00
2023-03-10T05:14:03.430Z,3.00
2023-03-10T05:17:08.598Z,2.20
2023-03-10T05:20:14.457Z,2.60
2023-03-10T05:23:18.129Z,4.40
2023-03-10T05:26:21.435Z,4.00
2023-03-10T05:29:24.935Z,1.25
2023-03-10T05:32:36.864Z,2.75
2023-03-10T05:35:41.298Z,3.80
2023-03-10T05:38:45.466Z,1.00
2023-03-10T05:41:51.120Z,3.00
2023-03-10T05:44:55.154Z,4.00
2023-03-10T05:48:00.097Z,5.00
2023-03-10T05:51:05.705Z,3.40
2023-03-10T05:54:09.609Z,3.00
2023-03-10T05:57:14.118Z,6.00
2023-03-10T06:00:19.242Z,3.00
2023-03-10T06:03:34.235Z,3.60
2023-03-10T06:06:37.760Z,4.00
2023-03-10T06:09:41.088Z,3.40
2023-03-10T06:12:44.470Z,3.00
2023-03-10T06:15:51.813Z,3.00
2023-03-10T06:18:56.852Z,4.00
2023-03-10T06:22:00.157Z,4.40
2023-03-10T06:25:03.499Z,2.40
2023-03-10T06:28:09.576Z,4.00
2023-03-10T06:31:16.046Z,4.25
2023-03-10T06:34:20.922Z,3.50
2023-03-10T06:37:24.475Z,5.00
2023-03-10T06:40:27.855Z,4.00
2023-03-10T06:43:32.385Z,3.75
2023-03-10T06:46:35.771Z,5.00
2023-03-10T06:49:40.416Z,4.00
2023-03-10T06:52:43.875Z,3.00
2023-03-10T06:55:47.350Z,3.50
2023-03-10T06:58:50.999Z,3.00
2023-03-10T07:01:54.263Z,2.25
2023-03-10T07:04:59.408Z,2.00
2023-03-10T07:08:02.948Z,3.00
2023-03-10T07:11:06.530Z,3.00
2023-03-10T07:14:09.748Z,2.00
2023-03-10T07:17:13.074Z,4.00
2023-03-10T07:20:18.084Z,3.00
2023-03-10T07:23:21.515Z,1.60
2023-03-10T07:26:24.748Z,3.80
2023-03-10T07:29:28.050Z,2.00
2023-03-10T07:32:31.366Z,3.00
2023-03-10T07:35:37.302Z,1.00
2023-03-10T07:38:41.035Z,2.00
2023-03-10T07:41:44.591Z,1.00
2023-03-10T07:44:47.888Z,4.40
2023-03-10T07:47:51.677Z,2.50
2023-03-10T07:51:00.214Z,2.00
2023-03-10T07:54:03.506Z,3.00
2023-03-10T07:57:09.217Z,2.00
2023-03-10T08:00:14.346Z,1.00
2023-03-10T08:03:20.362Z,1.00
2023-03-10T08:06:27.874Z,1.00
2023-03-10T08:09:31.527Z,1.00
2023-03-10T08:12:38.052Z,1.00
2023-03-10T08:15:42.390Z,3.00
2023-03-10T08:18:47.161Z,1.00
2023-03-10T08:21:54.238Z,2.00
2023-03-10T08:24:59.507Z,3.00
2023-03-10T08:28:02.803Z,1.00
2023-03-10T08:31:09.963Z,3.00
2023-03-10T08:34:14.174Z,1.00
2023-03-10T08:37:18.854Z,2.00
2023-03-10T08:40:22.637Z,2.00
2023-03-10T08:43:25.921Z,2.00
2023-03-10T08:46:33.667Z,2.60
2023-03-10T08:49:37.451Z,1.60
2023-03-10T08:52:42.624Z,3.00
2023-03-10T08:55:45.968Z,1.00
2023-03-10T08:58:49.817Z,3.00
2023-03-10T09:01:53.240Z,2.20
2023-03-10T09:04:56.812Z,2.00
2023-03-10T09:08:01.450Z,3.00
2023-03-10T09:11:05.273Z,2.00
2023-03-10T09:14:10.932Z,1.00
2023-03-10T09:17:14.294Z,1.00
2023-03-10T09:20:17.763Z,2.00
2023-03-10T09:23:22.454Z,1.20
2023-03-10T09:26:25.768Z,3.00
2023-03-10T09:29:42.803Z,1.80
2023-03-10T09:32:46.576Z,3.00
2023-03-10T09:36:05.841Z,2.80
2023-03-10T09:39:11.518Z,2.00
2023-03-10T09:42:38.804Z,3.00
2023-03-10T09:45:46.893Z,3.40
2023-03-10T09:48:56.986Z,2.00
2023-03-10T09:52:04.395Z,2.50
2023-03-10T09:55:22.353Z,4.00
2023-03-10T09:58:33.642Z,3.60
2023-03-10T10:01:37.077Z,2.00
2023-03-10T10:04:43.317Z,1.00
2023-03-10T10:07:52.102Z,4.00
2023-03-10T10:10:58.970Z,1.00
2023-03-10T10:14:26.120Z,2.00
2023-03-10T10:18:00.594Z,2.00
2023-03-10T10:21:16.560Z,2.00
2023-03-10T10:24:21.329Z,1.00
2023-03-10T10:27:26.059Z,2.00
2023-03-10T10:30:33.646Z,3.00
2023-03-10T10:33:53.862Z,2.00
2023-03-10T10:36:58.087Z,2.40
2023-03-10T10:40:02.001Z,1.40
2023-03-10T10:43:07.877Z,4.00
2023-03-10T10:46:14.030Z,2.00
2023-03-10T10:49:23.460Z,2.00
2023-03-10T10:52:27.431Z,3.75
2023-03-10T10:55:34.568Z,1.75
2023-03-10T10:58:41.178Z,2.00
2023-03-10T11:01:53.751Z,2.00
2023-03-10T11:05:07.819Z,1.00
2023-03-10T11:08:20.039Z,3.00
2023-03-10T11:11:32.141Z,3.00
2023-03-10T11:14:49.492Z,1.75
2023-03-10T11:17:57.615Z,2.00
2023-03-10T11:21:08.911Z,2.40
2023-03-10T11:24:18.548Z,2.00
2023-03-10T11:27:28.411Z,4.00
2023-03-10T11:30:35.188Z,3.00
2023-03-10T11:33:47.855Z,3.40
2023-03-10T11:36:59.890Z,3.00
2023-03-10T11:40:19.834Z,3.67
2023-03-10T11:43:31.762Z,3.40
2023-03-10T11:46:44.497Z,3.00
2023-03-10T11:49:58.892Z,2.40
2023-03-10T11:53:07.767Z,3.00
2023-03-10T11:56:14.794Z,3.50
2023-03-10T11:59:22.252Z,2.00
2023-03-10T12:02:31.779Z,4.00
2023-03-10T12:05:46.203Z,2.00
2023-03-10T12:08:53.972Z,3.00
2023-03-10T12:11:58.223Z,2.00
2023-03-10T12:15:06.108Z,2.00
2023-03-10T12:18:11.105Z,3.40
2023-03-10T12:21:18.122Z,2.00
2023-03-10T12:24:44.075Z,2.50
2023-03-10T12:28:22.361Z,2.40
2023-03-10T12:31:47.753Z,3.00
2023-03-10T12:35:34.701Z,4.00
2023-03-10T12:38:44.746Z,2.80
2023-03-10T12:41:49.719Z,3.00
2023-03-10T12:44:56.778Z,5.00
2023-03-10T12:48:05.450Z,3.00
2023-03-10T12:51:16.496Z,2.80
2023-03-10T12:54:43.955Z,3.00
2023-03-10T12:57:59.856Z,3.00
2023-03-10T13:01:07.664Z,6.00
2023-03-10T13:04:17.619Z,2.50
2023-03-10T13:07:20.907Z,3.00
2023-03-10T13:10:28.609Z,3.00
2023-03-10T13:13:35.332Z,2.00
2023-03-10T13:16:39.244Z,2.00
2023-03-10T13:19:42.918Z,3.00
2023-03-10T13:22:54.862Z,5.00
2023-03-10T13:26:01.388Z,4.00
2023-03-10T13:29:05.161Z,4.00
2023-03-10T13:32:19.619Z,2.20
2023-03-10T13:35:25.624Z,3.00
2023-03-10T13:38:28.914Z,2.50
2023-03-10T13:41:37.528Z,4.20
2023-03-10T13:44:44.548Z,4.00
2023-03-10T13:47:48.190Z,3.00
2023-03-10T13:51:05.509Z,4.00
2023-03-10T13:54:21.543Z,2.00
2023-03-10T13:57:32.052Z,3.00
2023-03-10T14:00:36.025Z,4.40
2023-03-10T14:03:39.343Z,3.00
2023-03-10T14:06:42.695Z,3.20
2023-03-10T14:09:47.870Z,3.00
2023-03-10T14:12:54.279Z,4.80
2023-03-10T14:15:57.591Z,3.40
2023-03-10T14:19:00.868Z,3.00
2023-03-10T14:22:04.364Z,3.00
2023-03-10T14:25:13.758Z,2.00
2023-03-10T14:28:23.134Z,2.00
2023-03-10T14:31:26.633Z,3.00
2023-03-10T14:34:29.919Z,5.00
2023-03-10T14:37:33.195Z,2.40
2023-03-10T14:40:42.463Z,4.00
2023-03-10T14:43:47.759Z,3.00
2023-03-10T14:46:53.289Z,3.60
2023-03-10T14:49:56.829Z,4.60
2023-03-10T14:53:00.370Z,4.60
2023-03-10T14:56:04.005Z,3.00
2023-03-10T14:59:08.790Z,3.75
2023-03-10T15:02:21.902Z,3.25
2023-03-10T15:05:34.636Z,3.00
2023-03-10T15:08:41.842Z,6.25
2023-03-10T15:11:45.271Z,4.00
2023-03-10T15:14:53.976Z,4.00
2023-03-10T15:17:57.445Z,4.60
2023-03-10T15:21:02.111Z,4.00
2023-03-10T15:24:07.661Z,2.00
2023-03-10T15:27:12.984Z,4.00
2023-03-10T15:30:21.462Z,4.00
2023-03-10T15:33:24.720Z,5.00
2023-03-10T15:36:28.130Z,3.00
2023-03-10T15:39:33.113Z,3.00
2023-03-10T15:42:37.626Z,6.00
2023-03-10T15:45:46.594Z,5.50
2023-03-10T15:48:49.905Z,4.00
2023-03-10T15:51:53.607Z,5.00
2023-03-10T15:54:58.182Z,4.00
2023-03-10T15:58:02.298Z,2.40
2023-03-10T16:01:11.496Z,6.00
2023-03-10T16:04:14.929Z,4.00
2023-03-10T16:07:18.196Z,4.75
2023-03-10T16:10:22.276Z,7.00
2023-03-10T16:13:25.655Z,5.00
2023-03-10T16:16:30.445Z,3.00
2023-03-10T16:19:33.794Z,8.00
2023-03-10T16:22:40.641Z,5.50
2023-03-10T16:25:44.179Z,6.00
2023-03-10T16:28:51.046Z,5.60
2023-03-10T16:31:55.834Z,5.00
2023-03-10T16:35:00.146Z,4.00
2023-03-10T16:38:03.543Z,4.00
2023-03-10T16:41:07.851Z,5.00
2023-03-10T16:44:13.345Z,5.00
2023-03-10T16:47:18.180Z,5.20
2023-03-10T16:50:21.438Z,7.60
2023-03-10T16:53:24.680Z,5.00
2023-03-10T16:56:29.461Z,7.00
2023-03-10T16:59:33.740Z,5.00
2023-03-10T17:02:38.425Z,7.00
2023-03-10T17:05:41.853Z,7.25
2023-03-10T17:08:45.105Z,6.00
2023-03-10T17:11:55.356Z,9.00
2023-03-10T17:14:58.896Z,7.00
2023-03-10T17:18:03.600Z,6.00
2023-03-10T17:21:12.992Z,7.00
2023-03-10T17:24:18.815Z,10.00
2023-03-10T17:27:23.024Z,8.00
2023-03-10T17:30:26.316Z,8.00
2023-03-10T17:33:30.962Z,5.40
2023-03-10T17:36:34.991Z,6.00
2023-03-10T17:39:38.206Z,5.40
2023-03-10T17:42:42.341Z,5.40
2023-03-10T17:45:45.645Z,6.00
2023-03-10T17:48:51.459Z,4.00
2023-03-10T17:51:54.732Z,2.00
2023-03-10T17:54:58.633Z,5.60
2023-03-10T17:58:02.032Z,4.00
2023-03-10T18:01:09.717Z,4.00
2023-03-10T18:04:14.602Z,3.40
2023-03-10T18:07:18.274Z,2.00
2023-03-10T18:10:21.666Z,3.00
2023-03-10T18:13:25.180Z,4.00
2023-03-10T18:16:33.731Z,4.00
2023-03-10T18:19:38.806Z,4.80
2023-03-10T18:22:42.134Z,5.80
2023-03-10T18:25:46.122Z,5.60
2023-03-10T18:28:49.712Z,6.00
2023-03-10T18:31:52.998Z,6.75
2023-03-10T18:34:59.382Z,6.00
2023-03-10T18:38:02.919Z,6.40
2023-03-10T18:41:06.534Z,6.00
2023-03-10T18:44:09.763Z,5.00
2023-03-10T18:47:13.124Z,2.20
2023-03-10T18:50:18.249Z,5.50
2023-03-10T18:53:22.173Z,6.00
2023-03-10T18:56:29.086Z,7.00
2023-03-10T18:59:32.781Z,9.00
2023-03-10T19:02:36.663Z,7.40
2023-03-10T19:05:42.055Z,7.00
2023-03-10T19:08:46.128Z,5.75
2023-03-10T19:11:50.937Z,8.40
2023-03-10T19:14:55.422Z,6.20
2023-03-10T19:17:59.032Z,7.00
2023-03-10T19:21:03.815Z,6.20
2023-03-10T19:24:07.750Z,7.50
2023-03-10T19:27:11.167Z,6.00
2023-03-10T19:30:17.279Z,7.00
2023-03-10T19:33:20.622Z,7.00
2023-03-10T19:36:26.680Z,8.50
2023-03-10T19:39:29.947Z,6.00
2023-03-10T19:42:34.815Z,7.00
2023-03-10T19:45:39.409Z,7.00
2023-03-10T19:48:44.513Z,6.00
2023-03-10T19:51:49.279Z,8.50
2023-03-10T19:54:52.620Z,8.50
2023-03-10T19:57:57.378Z,9.40
2023-03-10T20:01:01.222Z,9.00
2023-03-10T20:04:05.245Z,9.67
2023-03-10T20:07:10.141Z,9.00
2023-03-10T20:10:14.242Z,8.00
2023-03-10T20:13:17.857Z,7.00
2023-03-10T20:16:24.098Z,6.40
2023-03-10T20:19:27.640Z,7.00
2023-03-10T20:22:32.479Z,5.80
2023-03-10T20:25:35.816Z,5.75
2023-03-10T20:28:40.519Z,5.00
2023-03-10T20:31:44.067Z,6.00
2023-03-10T20:34:47.478Z,6.00
2023-03-10T20:37:52.439Z,7.80
2023-03-10T20:40:55.890Z,10.00
2023-03-10T20:43:59.180Z,6.60
2023-03-10T20:47:02.500Z,9.00
2023-03-10T20:50:06.647Z,7.00
2023-03-10T20:53:11.448Z,8.20
2023-03-10T20:56:14.822Z,9.00
2023-03-10T20:59:18.141Z,10.00
2023-03-10T21:02:21.924Z,8.00
2023-03-10T21:05:26.911Z,9.00
2023-03-10T21:08:31.573Z,8.60
2023-03-10T21:11:35.961Z,9.00
2023-03-10T21:14:39.228Z,8.60
2023-03-10T21:17:42.875Z,8.00
2023-03-10T21:20:46.110Z,9.00
2023-03-10T21:23:50.892Z,6.60
2023-03-10T21:26:54.213Z,7.00
2023-03-10T21:29:57.660Z,7.00
2023-03-10T21:33:01.365Z,8.00
2023-03-10T21:36:05.219Z,9.40
2023-03-10T21:39:10.003Z,8.00
2023-03-10T21:42:14.877Z,8.40
2023-03-10T21:45:21.054Z,6.80
2023-03-10T21:48:24.360Z,8.00
2023-03-10T21:51:27.957Z,9.00
2023-03-10T21:54:32.836Z,8.00
2023-03-10T21:57:36.092Z,10.00
2023-03-10T22:00:39.518Z,5.00
2023-03-10T22:03:44.404Z,7.50
2023-03-10T22:06:47.695Z,9.00
2023-03-10T22:09:52.367Z,10.00
2023-03-10T22:12:55.618Z,9.00
2023-03-10T22:16:00.754Z,7.50
2023-03-10T22:19:04.435Z,8.00
2023-03-10T22:22:07.727Z,8.00
2023-03-10T22:25:12.924Z,9.40
2023-03-10T22:28:16.229Z,8.00
2023-03-10T22:31:21.081Z,8.00
2023-03-10T22:34:24.672Z,10.60
2023-03-10T22:37:28.047Z,8.00
2023-03-10T22:40:32.995Z,9.00
2023-03-10T22:43:36.263Z,8.00
2023-03-10T22:46:40.016Z,8.40
2023-03-10T22:49:43.353Z,8.20
2023-03-10T22:52:46.627Z,9.00
2023-03-10T22:55:52.388Z,6.33
2023-03-10T22:58:55.753Z,8.00
2023-03-10T23:01:59.171Z,9.00
2023-03-10T23:05:02.470Z,9.60
2023-03-10T23:08:07.090Z,9.00
2023-03-10T23:11:13.202Z,8.00
2023-03-10T23:14:17.191Z,11.00
2023-03-10T23:17:20.469Z,9.40
2023-03-10T23:20:27.705Z,9.60
2023-03-10T23:23:32.006Z,9.00
2023-03-10T23:26:37.611Z,9.80
2023-03-10T23:29:40.945Z,10.00
2023-03-10T23:32:44.650Z,11.80
2023-03-10T23:35:50.527Z,10.40
2023-03-10T23:38:53.941Z,11.00
2023-03-10T23:41:58.734Z,9.40
2023-03-10T23:45:02.334Z,15.00
2023-03-10T23:48:08.124Z,11.40
2023-03-10T23:51:15.749Z,10.40
2023-03-10T23:54:22.382Z,10.00
2023-03-10T23:57:27.794Z,9.20
